CDT,Max TemperatureF,Mean TemperatureF,Min TemperatureF,Max Dew PointF,MeanDew PointF,Min DewpointF,Max Humidity, Mean Humidity, Min Humidity, Max Sea Level PressureIn, Mean Sea Level PressureIn, Min Sea Level PressureIn, Max VisibilityMiles, Mean VisibilityMiles, Min VisibilityMiles, Max Wind SpeedMPH, Mean Wind SpeedMPH, Max Gust SpeedMPH,PrecipitationIn, CloudCover, Events, WindDirDegrees
2011-10-1,73,54,35,37,34,32,87,55,22,30.31,30.25,30.19,10,10,7,12,3,18,0.00,0,,135
2011-10-2,80,62,44,41,36,32,76,43,17,30.23,30.18,30.11,10,10,10,13,7,17,0.00,0,,149
2011-10-3,82,63,44,41,39,36,76,43,19,30.18,30.14,30.08,10,10,10,16,7,22,0.00,0,,129
2011-10-4,89,74,60,43,41,36,52,35,16,30.12,30.07,30.00,10,10,10,15,9,23,0.00,0,,152
2011-10-5,84,70,57,45,38,32,59,34,15,30.07,30.02,29.95,10,10,10,20,9,29,0.03,0,,144
2011-10-6,82,71,60,46,41,36,52,36,24,29.99,29.92,29.82,10,10,10,29,13,43,0.00,2,Rain,139
2011-10-7,80,71,62,61,53,45,68,49,38,29.95,29.88,29.85,10,10,10,28,18,36,0.00,3,,157
2011-10-8,78,72,66,59,53,50,64,51,39,30.06,30.00,29.94,10,10,10,16,12,24,0.00,6,Thunderstorm,155
2011-10-9,78,68,59,61,55,43,94,69,28,30.14,30.08,29.99,10,9,0,22,6,32,0.02,4,Fog-Rain,144
2011-10-10,71,64,57,57,51,45,94,70,38,30.06,30.00,29.93,10,10,2,12,6,16,0.09,3,Rain,174
2011-10-11,78,64,50,55,49,43,100,67,30,29.94,29.84,29.73,10,10,5,17,6,25,0.00,2,Thunderstorm,143
2011-10-12,69,61,53,55,52,45,94,74,46,29.81,29.74,29.70,10,10,7,24,5,30,0.07,5,Rain-Thunderstorm,289
2011-10-13,73,58,42,45,37,28,93,53,20,29.87,29.83,29.78,10,10,10,24,12,32,0.00,0,,289
2011-10-14,62,52,42,36,32,25,76,50,24,30.01,29.95,29.85,10,10,10,25,12,33,0.00,3,,286
2011-10-15,73,53,33,43,33,27,93,56,22,30.06,29.94,29.74,10,10,5,16,3,23,0.00,0,,181
2011-10-16,62,52,42,43,35,28,81,53,27,30.10,29.99,29.72,10,10,7,18,6,24,0.00,0,Rain,327
2011-10-17,50,42,35,43,38,30,93,80,65,30.06,30.04,30.00,10,10,7,15,4,18,0.17,6,Rain,282
2011-10-18,53,44,35,39,30,19,93,62,26,30.12,30.07,30.00,10,10,10,24,12,33,0.00,0,,314
2011-10-19,48,39,30,28,24,21,87,63,34,30.16,30.11,30.08,10,10,10,16,7,23,0.00,0,,328
2011-10-20,53,40,28,32,30,27,93,71,38,30.10,30.06,30.02,10,10,10,10,5,23,0.00,2,,305
2011-10-21,69,50,30,39,33,28,100,63,25,30.09,30.06,30.02,10,9,2,9,1,,0.00,0,,214
2011-10-22,59,49,39,50,41,36,100,76,45,30.13,30.09,30.04,10,7,0,7,1,,0.04,4,Fog-Rain,81
2011-10-23,77,56,35,50,39,34,100,70,24,30.02,29.96,29.88,10,6,0,15,3,18,0.00,2,Fog,263
2011-10-24,77,57,37,45,36,32,93,52,19,30.10,29.98,29.76,10,10,10,18,5,25,0.00,0,,167
2011-10-25,68,60,51,46,42,36,63,48,39,29.99,29.77,29.68,10,10,10,21,12,31,0.00,0,,241
2011-10-26,51,46,41,39,35,32,81,67,50,30.15,30.10,30.05,10,10,10,15,9,23,0.00,6,,327
2011-10-27,55,42,28,32,27,21,93,61,26,30.16,30.13,30.08,10,10,10,13,5,22,0.00,2,,272
2011-10-28,57,44,30,32,22,10,87,47,17,30.21,30.16,30.12,10,10,10,22,9,28,0.00,0,,283
2011-10-29,64,46,28,32,25,19,87,51,19,30.14,29.97,29.79,10,10,10,17,4,28,0.00,0,,143
2011-10-30,60,48,35,34,27,18,87,45,19,30.05,29.98,29.82,10,10,10,28,13,34,0.00,1,,296
2011-10-31,66,46,26,30,24,21,87,50,19,30.09,30.00,29.89,10,10,10,15,5,20,0.00,0,,150